sensor_id;sensor_type;location;lat;lon;timestamp;P1;durP1;ratioP1;P2;durP2;ratioP2
6667;SDS011;3370;47.712;9.082;2023-04-29T00:02:12;6.43;;;5.13;;
6667;SDS011;3370;47.712;9.082;2023-04-29T00:04:38;6.10;;;5.57;;
6667;SDS011;3370;47.712;9.082;2023-04-29T00:07:03;5.97;;;4.73;;
6667;SDS011;3370;47.712;9.082;2023-04-29T00:09:29;5.40;;;4.80;;
6667;SDS011;3370;47.712;9.082;2023-04-29T00:11:55;5.70;;;5.20;;
6667;SDS011;3370;47.712;9.082;2023-04-29T00:14:21;6.30;;;5.17;;
6667;SDS011;3370;47.712;9.082;2023-04-29T00:16:47;6.67;;;5.00;;
6667;SDS011;3370;47.712;9.082;2023-04-29T00:19:12;5.70;;;5.00;;
6667;SDS011;3370;47.712;9.082;2023-04-29T00:21:38;6.60;;;4.70;;
6667;SDS011;3370;47.712;9.082;2023-04-29T00:24:04;5.90;;;5.27;;
6667;SDS011;3370;47.712;9.082;2023-04-29T00:26:30;9.37;;;5.60;;
6667;SDS011;3370;47.712;9.082;2023-04-29T00:28:56;5.33;;;4.83;;
6667;SDS011;3370;47.712;9.082;2023-04-29T00:31:22;8.98;;;5.63;;
6667;SDS011;3370;47.712;9.082;2023-04-29T00:33:47;5.70;;;5.20;;
6667;SDS011;3370;47.712;9.082;2023-04-29T00:36:13;5.13;;;4.73;;
6667;SDS011;3370;47.712;9.082;2023-04-29T00:38:39;6.30;;;5.70;;
6667;SDS011;3370;47.712;9.082;2023-04-29T00:41:05;9.20;;;5.63;;
6667;SDS011;3370;47.712;9.082;2023-04-29T00:43:30;7.10;;;4.90;;
6667;SDS011;3370;47.712;9.082;2023-04-29T00:45:56;8.53;;;6.20;;
6667;SDS011;3370;47.712;9.082;2023-04-29T00:48:22;8.83;;;7.20;;
6667;SDS011;3370;47.712;9.082;2023-04-29T00:50:48;7.67;;;6.97;;
6667;SDS011;3370;47.712;9.082;2023-04-29T00:53:15;11.17;;;8.37;;
6667;SDS011;3370;47.712;9.082;2023-04-29T00:55:41;8.87;;;8.07;;
6667;SDS011;3370;47.712;9.082;2023-04-29T00:58:10;10.20;;;9.20;;
6667;SDS011;3370;47.712;9.082;2023-04-29T01:00:37;11.03;;;9.10;;
6667;SDS011;3370;47.712;9.082;2023-04-29T01:03:06;10.53;;;8.20;;
6667;SDS011;3370;47.712;9.082;2023-04-29T01:05:33;11.63;;;8.43;;
6667;SDS011;3370;47.712;9.082;2023-04-29T01:08:12;10.33;;;8.47;;
6667;SDS011;3370;47.712;9.082;2023-04-29T01:11:04;8.53;;;7.73;;
6667;SDS011;3370;47.712;9.082;2023-04-29T01:13:50;7.67;;;6.97;;
6667;SDS011;3370;47.712;9.082;2023-04-29T01:16:28;12.60;;;10.67;;
6667;SDS011;3370;47.712;9.082;2023-04-29T01:19:05;13.47;;;10.57;;
6667;SDS011;3370;47.712;9.082;2023-04-29T01:22:01;9.98;;;8.95;;
6667;SDS011;3370;47.712;9.082;2023-04-29T01:24:27;11.60;;;10.40;;
6667;SDS011;3370;47.712;9.082;2023-04-29T01:26:55;18.50;;;9.30;;
6667;SDS011;3370;47.712;9.082;2023-04-29T01:30:14;10.17;;;8.47;;
6667;SDS011;3370;47.712;9.082;2023-04-29T01:42:03;9.40;;;8.60;;
6667;SDS011;3370;47.712;9.082;2023-04-29T01:44:45;9.65;;;8.65;;
6667;SDS011;3370;47.712;9.082;2023-04-29T01:47:13;10.03;;;8.90;;
6667;SDS011;3370;47.712;9.082;2023-04-29T01:49:39;10.13;;;9.13;;
6667;SDS011;3370;47.712;9.082;2023-04-29T01:52:05;10.93;;;9.43;;
6667;SDS011;3370;47.712;9.082;2023-04-29T01:54:31;9.57;;;8.57;;
6667;SDS011;3370;47.712;9.082;2023-04-29T01:57:00;10.53;;;9.60;;
6667;SDS011;3370;47.712;9.082;2023-04-29T01:59:27;10.77;;;9.30;;
6667;SDS011;3370;47.712;9.082;2023-04-29T02:01:53;11.90;;;9.97;;
6667;SDS011;3370;47.712;9.082;2023-04-29T02:04:20;10.30;;;9.27;;
6667;SDS011;3370;47.712;9.082;2023-04-29T02:06:46;11.53;;;9.87;;
6667;SDS011;3370;47.712;9.082;2023-04-29T02:09:12;13.95;;;10.10;;
6667;SDS011;3370;47.712;9.082;2023-04-29T02:11:37;9.70;;;8.80;;
6667;SDS011;3370;47.712;9.082;2023-04-29T02:14:03;10.90;;;9.90;;
6667;SDS011;3370;47.712;9.082;2023-04-29T02:16:29;10.57;;;9.57;;
6667;SDS011;3370;47.712;9.082;2023-04-29T02:18:55;8.90;;;8.05;;
6667;SDS011;3370;47.712;9.082;2023-04-29T02:21:20;9.20;;;8.30;;
6667;SDS011;3370;47.712;9.082;2023-04-29T02:23:46;9.70;;;8.80;;
6667;SDS011;3370;47.712;9.082;2023-04-29T02:26:12;9.63;;;8.70;;
6667;SDS011;3370;47.712;9.082;2023-04-29T02:28:39;9.10;;;7.03;;
6667;SDS011;3370;47.712;9.082;2023-04-29T02:31:05;20.27;;;9.20;;
6667;SDS011;3370;47.712;9.082;2023-04-29T02:33:31;8.50;;;7.65;;
6667;SDS011;3370;47.712;9.082;2023-04-29T02:35:57;13.35;;;8.75;;
6667;SDS011;3370;47.712;9.082;2023-04-29T02:38:23;10.60;;;8.10;;
6667;SDS011;3370;47.712;9.082;2023-04-29T02:40:49;8.50;;;7.70;;
6667;SDS011;3370;47.712;9.082;2023-04-29T02:43:16;12.07;;;7.23;;
6667;SDS011;3370;47.712;9.082;2023-04-29T02:45:41;12.20;;;7.17;;
6667;SDS011;3370;47.712;9.082;2023-04-29T02:48:07;9.60;;;8.80;;
6667;SDS011;3370;47.712;9.082;2023-04-29T02:50:33;9.23;;;8.10;;
6667;SDS011;3370;47.712;9.082;2023-04-29T02:52:59;11.83;;;8.13;;
6667;SDS011;3370;47.712;9.082;2023-04-29T02:55:25;8.00;;;7.30;;
6667;SDS011;3370;47.712;9.082;2023-04-29T02:57:51;8.85;;;7.53;;
6667;SDS011;3370;47.712;9.082;2023-04-29T03:00:17;8.53;;;7.57;;
6667;SDS011;3370;47.712;9.082;2023-04-29T03:02:42;9.00;;;8.10;;
6667;SDS011;3370;47.712;9.082;2023-04-29T03:05:08;7.27;;;6.70;;
6667;SDS011;3370;47.712;9.082;2023-04-29T03:07:34;9.73;;;6.80;;
6667;SDS011;3370;47.712;9.082;2023-04-29T03:10:01;9.87;;;6.23;;
6667;SDS011;3370;47.712;9.082;2023-04-29T03:12:26;6.03;;;5.60;;
6667;SDS011;3370;47.712;9.082;2023-04-29T03:14:52;8.43;;;7.17;;
6667;SDS011;3370;47.712;9.082;2023-04-29T03:17:18;7.93;;;6.60;;
6667;SDS011;3370;47.712;9.082;2023-04-29T03:19:44;7.88;;;7.07;;
6667;SDS011;3370;47.712;9.082;2023-04-29T03:22:09;8.57;;;7.67;;
6667;SDS011;3370;47.712;9.082;2023-04-29T03:24:36;11.30;;;7.80;;
6667;SDS011;3370;47.712;9.082;2023-04-29T03:27:03;10.13;;;6.40;;
6667;SDS011;3370;47.712;9.082;2023-04-29T03:29:29;6.20;;;5.60;;
6667;SDS011;3370;47.712;9.082;2023-04-29T03:31:56;8.50;;;7.00;;
6667;SDS011;3370;47.712;9.082;2023-04-29T03:34:22;7.37;;;6.23;;
6667;SDS011;3370;47.712;9.082;2023-04-29T03:36:48;6.00;;;5.50;;
6667;SDS011;3370;47.712;9.082;2023-04-29T03:39:18;7.03;;;5.77;;
6667;SDS011;3370;47.712;9.082;2023-04-29T03:41:45;6.10;;;5.60;;
6667;SDS011;3370;47.712;9.082;2023-04-29T03:44:11;7.43;;;5.90;;
6667;SDS011;3370;47.712;9.082;2023-04-29T03:46:37;6.57;;;5.90;;
6667;SDS011;3370;47.712;9.082;2023-04-29T03:49:03;6.03;;;5.40;;
6667;SDS011;3370;47.712;9.082;2023-04-29T03:51:29;7.30;;;5.63;;
6667;SDS011;3370;47.712;9.082;2023-04-29T03:53:55;7.87;;;6.10;;
6667;SDS011;3370;47.712;9.082;2023-04-29T03:56:22;10.83;;;7.23;;
6667;SDS011;3370;47.712;9.082;2023-04-29T03:58:49;7.38;;;5.45;;
6667;SDS011;3370;47.712;9.082;2023-04-29T04:01:16;9.63;;;7.87;;
6667;SDS011;3370;47.712;9.082;2023-04-29T04:03:43;9.77;;;5.83;;
6667;SDS011;3370;47.712;9.082;2023-04-29T04:06:09;6.83;;;6.30;;
6667;SDS011;3370;47.712;9.082;2023-04-29T04:08:35;6.90;;;6.30;;
6667;SDS011;3370;47.712;9.082;2023-04-29T04:11:00;8.20;;;6.50;;
6667;SDS011;3370;47.712;9.082;2023-04-29T04:13:29;5.70;;;5.20;;
6667;SDS011;3370;47.712;9.082;2023-04-29T04:15:55;6.10;;;5.63;;
6667;SDS011;3370;47.712;9.082;2023-04-29T04:18:21;6.30;;;5.80;;
6667;SDS011;3370;47.712;9.082;2023-04-29T04:20:47;6.40;;;5.80;;
6667;SDS011;3370;47.712;9.082;2023-04-29T04:23:13;5.35;;;4.95;;
6667;SDS011;3370;47.712;9.082;2023-04-29T04:25:47;7.20;;;6.50;;
6667;SDS011;3370;47.712;9.082;2023-04-29T04:28:13;7.70;;;6.93;;
6667;SDS011;3370;47.712;9.082;2023-04-29T04:30:39;7.97;;;7.37;;
6667;SDS011;3370;47.712;9.082;2023-04-29T04:33:07;12.13;;;8.63;;
6667;SDS011;3370;47.712;9.082;2023-04-29T04:35:34;9.13;;;8.33;;
6667;SDS011;3370;47.712;9.082;2023-04-29T04:38:00;8.77;;;7.97;;
6667;SDS011;3370;47.712;9.082;2023-04-29T04:40:26;10.00;;;9.00;;
6667;SDS011;3370;47.712;9.082;2023-04-29T04:42:52;9.53;;;8.50;;
6667;SDS011;3370;47.712;9.082;2023-04-29T04:45:17;11.03;;;9.07;;
6667;SDS011;3370;47.712;9.082;2023-04-29T04:47:43;8.53;;;7.83;;
6667;SDS011;3370;47.712;9.082;2023-04-29T04:50:09;11.13;;;9.13;;
6667;SDS011;3370;47.712;9.082;2023-04-29T04:52:35;12.33;;;9.10;;
6667;SDS011;3370;47.712;9.082;2023-04-29T04:55:00;6.93;;;6.33;;
6667;SDS011;3370;47.712;9.082;2023-04-29T04:57:26;10.23;;;9.20;;
6667;SDS011;3370;47.712;9.082;2023-04-29T04:59:52;10.23;;;8.93;;
6667;SDS011;3370;47.712;9.082;2023-04-29T05:02:18;10.53;;;9.43;;
6667;SDS011;3370;47.712;9.082;2023-04-29T05:04:44;10.40;;;9.37;;
6667;SDS011;3370;47.712;9.082;2023-04-29T05:07:09;14.33;;;10.83;;
6667;SDS011;3370;47.712;9.082;2023-04-29T05:09:35;10.63;;;9.50;;
6667;SDS011;3370;47.712;9.082;2023-04-29T05:12:01;13.30;;;9.40;;
6667;SDS011;3370;47.712;9.082;2023-04-29T05:14:27;13.10;;;9.27;;
6667;SDS011;3370;47.712;9.082;2023-04-29T05:16:57;10.10;;;8.90;;
6667;SDS011;3370;47.712;9.082;2023-04-29T05:19:25;10.73;;;9.63;;
6667;SDS011;3370;47.712;9.082;2023-04-29T05:21:51;13.90;;;10.80;;
6667;SDS011;3370;47.712;9.082;2023-04-29T05:24:17;13.27;;;10.73;;
6667;SDS011;3370;47.712;9.082;2023-04-29T05:26:43;15.27;;;10.30;;
6667;SDS011;3370;47.712;9.082;2023-04-29T05:29:09;12.87;;;11.50;;
6667;SDS011;3370;47.712;9.082;2023-04-29T05:31:36;12.10;;;10.90;;
6667;SDS011;3370;47.712;9.082;2023-04-29T05:34:02;15.33;;;11.03;;
6667;SDS011;3370;47.712;9.082;2023-04-29T05:36:31;10.00;;;9.00;;
6667;SDS011;3370;47.712;9.082;2023-04-29T05:38:57;12.60;;;8.90;;
6667;SDS011;3370;47.712;9.082;2023-04-29T05:41:23;8.53;;;7.73;;
6667;SDS011;3370;47.712;9.082;2023-04-29T05:43:49;16.63;;;9.73;;
6667;SDS011;3370;47.712;9.082;2023-04-29T05:46:15;9.87;;;8.87;;
6667;SDS011;3370;47.712;9.082;2023-04-29T05:48:41;12.40;;;10.80;;
6667;SDS011;3370;47.712;9.082;2023-04-29T05:51:07;16.07;;;10.17;;
6667;SDS011;3370;47.712;9.082;2023-04-29T05:53:33;10.87;;;9.70;;
6667;SDS011;3370;47.712;9.082;2023-04-29T05:56:00;10.30;;;9.30;;
6667;SDS011;3370;47.712;9.082;2023-04-29T05:58:30;11.00;;;10.00;;
6667;SDS011;3370;47.712;9.082;2023-04-29T06:00:56;17.03;;;10.07;;
6667;SDS011;3370;47.712;9.082;2023-04-29T06:03:21;16.23;;;11.47;;
6667;SDS011;3370;47.712;9.082;2023-04-29T06:05:47;10.80;;;9.80;;
6667;SDS011;3370;47.712;9.082;2023-04-29T06:08:13;10.80;;;9.70;;
6667;SDS011;3370;47.712;9.082;2023-04-29T06:10:39;11.20;;;10.00;;
6667;SDS011;3370;47.712;9.082;2023-04-29T06:13:05;12.70;;;10.97;;
6667;SDS011;3370;47.712;9.082;2023-04-29T06:15:31;12.33;;;11.13;;
6667;SDS011;3370;47.712;9.082;2023-04-29T06:17:57;16.80;;;11.63;;
6667;SDS011;3370;47.712;9.082;2023-04-29T06:20:22;10.90;;;9.80;;
6667;SDS011;3370;47.712;9.082;2023-04-29T06:22:48;10.50;;;9.13;;
6667;SDS011;3370;47.712;9.082;2023-04-29T06:25:14;11.90;;;9.20;;
6667;SDS011;3370;47.712;9.082;2023-04-29T06:27:40;10.45;;;8.80;;
6667;SDS011;3370;47.712;9.082;2023-04-29T06:30:06;9.50;;;8.70;;
6667;SDS011;3370;47.712;9.082;2023-04-29T06:32:32;13.07;;;9.65;;
6667;SDS011;3370;47.712;9.082;2023-04-29T06:34:58;8.97;;;8.07;;
6667;SDS011;3370;47.712;9.082;2023-04-29T06:37:25;7.10;;;6.50;;
6667;SDS011;3370;47.712;9.082;2023-04-29T06:39:51;7.80;;;6.37;;
6667;SDS011;3370;47.712;9.082;2023-04-29T06:42:17;8.03;;;6.00;;
6667;SDS011;3370;47.712;9.082;2023-04-29T06:44:43;7.60;;;5.55;;
6667;SDS011;3370;47.712;9.082;2023-04-29T06:47:09;5.97;;;5.40;;
6667;SDS011;3370;47.712;9.082;2023-04-29T06:49:35;9.10;;;4.40;;
6667;SDS011;3370;47.712;9.082;2023-04-29T06:52:00;4.80;;;4.40;;
6667;SDS011;3370;47.712;9.082;2023-04-29T06:54:26;6.30;;;3.90;;
6667;SDS011;3370;47.712;9.082;2023-04-29T06:56:52;6.63;;;4.50;;
6667;SDS011;3370;47.712;9.082;2023-04-29T06:59:18;7.43;;;3.83;;
6667;SDS011;3370;47.712;9.082;2023-04-29T07:01:44;4.07;;;3.45;;
6667;SDS011;3370;47.712;9.082;2023-04-29T07:04:10;3.90;;;3.53;;
6667;SDS011;3370;47.712;9.082;2023-04-29T07:06:36;8.70;;;4.07;;
6667;SDS011;3370;47.712;9.082;2023-04-29T07:09:02;3.47;;;3.27;;
6667;SDS011;3370;47.712;9.082;2023-04-29T07:11:28;3.90;;;3.60;;
6667;SDS011;3370;47.712;9.082;2023-04-29T07:13:54;5.37;;;3.80;;
6667;SDS011;3370;47.712;9.082;2023-04-29T07:16:20;3.70;;;3.50;;
6667;SDS011;3370;47.712;9.082;2023-04-29T07:18:46;3.90;;;3.60;;
6667;SDS011;3370;47.712;9.082;2023-04-29T07:21:13;6.77;;;3.20;;
6667;SDS011;3370;47.712;9.082;2023-04-29T07:23:39;4.53;;;3.53;;
6667;SDS011;3370;47.712;9.082;2023-04-29T07:26:08;3.47;;;3.23;;
6667;SDS011;3370;47.712;9.082;2023-04-29T07:28:39;4.13;;;3.27;;
6667;SDS011;3370;47.712;9.082;2023-04-29T07:31:06;10.47;;;3.20;;
6667;SDS011;3370;47.712;9.082;2023-04-29T07:33:33;3.00;;;2.80;;
6667;SDS011;3370;47.712;9.082;2023-04-29T07:36:00;3.20;;;2.80;;
6667;SDS011;3370;47.712;9.082;2023-04-29T07:38:27;3.30;;;3.10;;
6667;SDS011;3370;47.712;9.082;2023-04-29T07:40:53;3.43;;;3.20;;
6667;SDS011;3370;47.712;9.082;2023-04-29T07:43:19;3.33;;;3.03;;
6667;SDS011;3370;47.712;9.082;2023-04-29T07:45:45;2.97;;;2.83;;
6667;SDS011;3370;47.712;9.082;2023-04-29T07:48:12;3.30;;;3.10;;
6667;SDS011;3370;47.712;9.082;2023-04-29T07:50:38;2.97;;;2.77;;
6667;SDS011;3370;47.712;9.082;2023-04-29T07:53:04;2.70;;;2.50;;
6667;SDS011;3370;47.712;9.082;2023-04-29T07:55:30;3.70;;;2.70;;
6667;SDS011;3370;47.712;9.082;2023-04-29T07:57:57;5.83;;;4.00;;
6667;SDS011;3370;47.712;9.082;2023-04-29T08:00:23;3.77;;;2.93;;
6667;SDS011;3370;47.712;9.082;2023-04-29T08:02:52;3.57;;;3.17;;
6667;SDS011;3370;47.712;9.082;2023-04-29T08:05:20;4.10;;;2.77;;
6667;SDS011;3370;47.712;9.082;2023-04-29T08:07:46;4.70;;;3.07;;
6667;SDS011;3370;47.712;9.082;2023-04-29T08:10:13;3.33;;;3.10;;
6667;SDS011;3370;47.712;9.082;2023-04-29T08:12:40;3.83;;;3.53;;
6667;SDS011;3370;47.712;9.082;2023-04-29T08:15:05;9.83;;;3.67;;
6667;SDS011;3370;47.712;9.082;2023-04-29T08:17:32;3.63;;;3.43;;
6667;SDS011;3370;47.712;9.082;2023-04-29T08:19:57;3.90;;;3.60;;
6667;SDS011;3370;47.712;9.082;2023-04-29T08:22:23;4.33;;;3.03;;
6667;SDS011;3370;47.712;9.082;2023-04-29T08:24:49;3.60;;;3.30;;
6667;SDS011;3370;47.712;9.082;2023-04-29T08:27:15;3.93;;;3.27;;
6667;SDS011;3370;47.712;9.082;2023-04-29T08:29:41;3.30;;;3.00;;
6667;SDS011;3370;47.712;9.082;2023-04-29T08:32:07;6.20;;;2.57;;
6667;SDS011;3370;47.712;9.082;2023-04-29T08:34:33;3.93;;;3.47;;
6667;SDS011;3370;47.712;9.082;2023-04-29T08:37:00;3.83;;;3.53;;
6667;SDS011;3370;47.712;9.082;2023-04-29T08:39:29;5.97;;;3.13;;
6667;SDS011;3370;47.712;9.082;2023-04-29T08:41:55;4.63;;;3.00;;
6667;SDS011;3370;47.712;9.082;2023-04-29T08:44:24;3.50;;;3.00;;
6667;SDS011;3370;47.712;9.082;2023-04-29T08:46:51;3.17;;;2.90;;
6667;SDS011;3370;47.712;9.082;2023-04-29T08:49:18;2.80;;;2.60;;
6667;SDS011;3370;47.712;9.082;2023-04-29T08:51:44;2.87;;;2.60;;
6667;SDS011;3370;47.712;9.082;2023-04-29T08:54:13;3.03;;;2.83;;
6667;SDS011;3370;47.712;9.082;2023-04-29T08:56:41;2.57;;;2.37;;
6667;SDS011;3370;47.712;9.082;2023-04-29T08:59:11;5.90;;;2.67;;
6667;SDS011;3370;47.712;9.082;2023-04-29T09:01:40;2.70;;;2.50;;
6667;SDS011;3370;47.712;9.082;2023-04-29T09:04:10;2.70;;;2.50;;
6667;SDS011;3370;47.712;9.082;2023-04-29T09:06:55;6.10;;;2.67;;
6667;SDS011;3370;47.712;9.082;2023-04-29T09:09:23;2.33;;;2.23;;
6667;SDS011;3370;47.712;9.082;2023-04-29T09:11:50;2.47;;;2.30;;
6667;SDS011;3370;47.712;9.082;2023-04-29T09:14:16;2.67;;;2.47;;
6667;SDS011;3370;47.712;9.082;2023-04-29T09:16:47;2.63;;;2.15;;
6667;SDS011;3370;47.712;9.082;2023-04-29T09:19:28;3.60;;;2.27;;
6667;SDS011;3370;47.712;9.082;2023-04-29T09:21:59;2.15;;;1.75;;
6667;SDS011;3370;47.712;9.082;2023-04-29T09:24:28;2.93;;;2.13;;
6667;SDS011;3370;47.712;9.082;2023-04-29T09:26:55;2.27;;;2.13;;
6667;SDS011;3370;47.712;9.082;2023-04-29T09:29:22;3.23;;;2.73;;
6667;SDS011;3370;47.712;9.082;2023-04-29T09:31:48;3.22;;;2.38;;
6667;SDS011;3370;47.712;9.082;2023-04-29T09:34:17;2.40;;;2.20;;
6667;SDS011;3370;47.712;9.082;2023-04-29T09:36:56;2.33;;;2.13;;
6667;SDS011;3370;47.712;9.082;2023-04-29T09:39:23;4.00;;;2.03;;
6667;SDS011;3370;47.712;9.082;2023-04-29T09:44:18;2.30;;;1.70;;
6667;SDS011;3370;47.712;9.082;2023-04-29T09:51:57;2.42;;;1.50;;
6667;SDS011;3370;47.712;9.082;2023-04-29T09:54:26;1.60;;;1.50;;
6667;SDS011;3370;47.712;9.082;2023-04-29T09:56:55;4.20;;;1.77;;
6667;SDS011;3370;47.712;9.082;2023-04-29T09:59:23;1.40;;;1.40;;
6667;SDS011;3370;47.712;9.082;2023-04-29T10:01:50;2.70;;;1.17;;
6667;SDS011;3370;47.712;9.082;2023-04-29T10:04:18;4.30;;;1.50;;
6667;SDS011;3370;47.712;9.082;2023-04-29T10:06:50;2.57;;;1.60;;
6667;SDS011;3370;47.712;9.082;2023-04-29T10:09:19;2.47;;;1.50;;
6667;SDS011;3370;47.712;9.082;2023-04-29T10:11:47;1.85;;;1.40;;
6667;SDS011;3370;47.712;9.082;2023-04-29T10:14:22;3.50;;;1.70;;
6667;SDS011;3370;47.712;9.082;2023-04-29T10:17:06;3.37;;;1.63;;
6667;SDS011;3370;47.712;9.082;2023-04-29T10:19:56;1.40;;;1.30;;
6667;SDS011;3370;47.712;9.082;2023-04-29T10:25:10;1.47;;;1.37;;
6667;SDS011;3370;47.712;9.082;2023-04-29T10:27:38;2.75;;;1.52;;
6667;SDS011;3370;47.712;9.082;2023-04-29T10:30:11;3.00;;;1.70;;
6667;SDS011;3370;47.712;9.082;2023-04-29T10:32:42;1.50;;;1.40;;
6667;SDS011;3370;47.712;9.082;2023-04-29T10:35:10;2.80;;;1.80;;
6667;SDS011;3370;47.712;9.082;2023-04-29T10:37:41;4.47;;;1.97;;
6667;SDS011;3370;47.712;9.082;2023-04-29T10:42:47;1.50;;;1.40;;
6667;SDS011;3370;47.712;9.082;2023-04-29T10:45:28;3.63;;;1.60;;
6667;SDS011;3370;47.712;9.082;2023-04-29T10:51:18;2.30;;;2.10;;
6667;SDS011;3370;47.712;9.082;2023-04-29T10:53:21;1.83;;;1.73;;
6667;SDS011;3370;47.712;9.082;2023-04-29T10:55:57;1.73;;;1.63;;
6667;SDS011;3370;47.712;9.082;2023-04-29T11:01:14;2.23;;;2.07;;
6667;SDS011;3370;47.712;9.082;2023-04-29T11:03:54;1.70;;;1.60;;
6667;SDS011;3370;47.712;9.082;2023-04-29T11:09:01;1.52;;;1.42;;
6667;SDS011;3370;47.712;9.082;2023-04-29T11:14:28;2.20;;;2.10;;
6667;SDS011;3370;47.712;9.082;2023-04-29T11:17:12;3.00;;;2.17;;
6667;SDS011;3370;47.712;9.082;2023-04-29T11:19:42;2.63;;;1.60;;
6667;SDS011;3370;47.712;9.082;2023-04-29T11:22:23;1.33;;;1.23;;
6667;SDS011;3370;47.712;9.082;2023-04-29T11:25:07;2.80;;;1.40;;
6667;SDS011;3370;47.712;9.082;2023-04-29T11:27:36;3.13;;;2.00;;
6667;SDS011;3370;47.712;9.082;2023-04-29T11:30:04;1.30;;;1.30;;
6667;SDS011;3370;47.712;9.082;2023-04-29T11:32:38;1.30;;;1.30;;
6667;SDS011;3370;47.712;9.082;2023-04-29T11:35:15;1.40;;;1.40;;
6667;SDS011;3370;47.712;9.082;2023-04-29T11:37:44;2.53;;;1.40;;
6667;SDS011;3370;47.712;9.082;2023-04-29T11:40:11;2.70;;;1.63;;
6667;SDS011;3370;47.712;9.082;2023-04-29T11:42:43;1.50;;;1.30;;
6667;SDS011;3370;47.712;9.082;2023-04-29T11:45:12;4.20;;;1.30;;
6667;SDS011;3370;47.712;9.082;2023-04-29T11:47:41;1.20;;;1.10;;
6667;SDS011;3370;47.712;9.082;2023-04-29T11:50:09;2.10;;;1.30;;
6667;SDS011;3370;47.712;9.082;2023-04-29T11:52:37;1.27;;;1.10;;
6667;SDS011;3370;47.712;9.082;2023-04-29T11:55:04;1.83;;;1.47;;
6667;SDS011;3370;47.712;9.082;2023-04-29T11:57:35;1.73;;;1.63;;
6667;SDS011;3370;47.712;9.082;2023-04-29T12:00:03;1.77;;;1.60;;
6667;SDS011;3370;47.712;9.082;2023-04-29T12:02:32;1.20;;;1.20;;
6667;SDS011;3370;47.712;9.082;2023-04-29T12:04:59;2.00;;;1.50;;
6667;SDS011;3370;47.712;9.082;2023-04-29T12:07:31;4.40;;;1.37;;
6667;SDS011;3370;47.712;9.082;2023-04-29T12:09:56;1.47;;;1.33;;
6667;SDS011;3370;47.712;9.082;2023-04-29T12:12:22;2.35;;;1.50;;
6667;SDS011;3370;47.712;9.082;2023-04-29T12:14:48;1.40;;;1.30;;
6667;SDS011;3370;47.712;9.082;2023-04-29T12:17:15;1.50;;;1.40;;
6667;SDS011;3370;47.712;9.082;2023-04-29T12:19:41;1.20;;;0.90;;
6667;SDS011;3370;47.712;9.082;2023-04-29T12:22:08;1.47;;;1.37;;
6667;SDS011;3370;47.712;9.082;2023-04-29T12:24:37;3.80;;;1.50;;
6667;SDS011;3370;47.712;9.082;2023-04-29T12:27:07;2.50;;;1.30;;
6667;SDS011;3370;47.712;9.082;2023-04-29T12:29:37;3.90;;;2.57;;
6667;SDS011;3370;47.712;9.082;2023-04-29T12:32:04;1.80;;;1.38;;
6667;SDS011;3370;47.712;9.082;2023-04-29T12:34:31;1.67;;;1.57;;
6667;SDS011;3370;47.712;9.082;2023-04-29T12:36:58;1.77;;;1.53;;
6667;SDS011;3370;47.712;9.082;2023-04-29T12:39:25;2.17;;;1.47;;
6667;SDS011;3370;47.712;9.082;2023-04-29T12:41:58;2.47;;;1.30;;
6667;SDS011;3370;47.712;9.082;2023-04-29T12:44:25;3.10;;;1.20;;
6667;SDS011;3370;47.712;9.082;2023-04-29T12:47:04;1.23;;;1.13;;
6667;SDS011;3370;47.712;9.082;2023-04-29T12:49:33;4.13;;;1.47;;
6667;SDS011;3370;47.712;9.082;2023-04-29T12:51:59;0.90;;;0.90;;
6667;SDS011;3370;47.712;9.082;2023-04-29T12:54:26;3.65;;;1.55;;
6667;SDS011;3370;47.712;9.082;2023-04-29T12:56:52;11.63;;;2.47;;
6667;SDS011;3370;47.712;9.082;2023-04-29T12:59:18;4.70;;;1.37;;
6667;SDS011;3370;47.712;9.082;2023-04-29T13:01:44;2.33;;;1.20;;
6667;SDS011;3370;47.712;9.082;2023-04-29T13:04:10;1.60;;;1.50;;
6667;SDS011;3370;47.712;9.082;2023-04-29T13:06:36;3.13;;;1.70;;
6667;SDS011;3370;47.712;9.082;2023-04-29T13:09:08;3.37;;;1.43;;
6667;SDS011;3370;47.712;9.082;2023-04-29T13:11:37;1.87;;;1.03;;
6667;SDS011;3370;47.712;9.082;2023-04-29T13:14:04;1.43;;;1.27;;
6667;SDS011;3370;47.712;9.082;2023-04-29T13:16:34;6.07;;;1.20;;
6667;SDS011;3370;47.712;9.082;2023-04-29T13:19:00;1.43;;;1.10;;
6667;SDS011;3370;47.712;9.082;2023-04-29T13:21:26;2.67;;;1.30;;
6667;SDS011;3370;47.712;9.082;2023-04-29T13:23:55;3.60;;;1.30;;
6667;SDS011;3370;47.712;9.082;2023-04-29T13:26:21;2.10;;;1.40;;
6667;SDS011;3370;47.712;9.082;2023-04-29T13:28:49;3.70;;;1.60;;
6667;SDS011;3370;47.712;9.082;2023-04-29T13:31:16;1.53;;;1.17;;
6667;SDS011;3370;47.712;9.082;2023-04-29T13:33:41;1.15;;;1.15;;
6667;SDS011;3370;47.712;9.082;2023-04-29T13:36:08;1.50;;;1.10;;
6667;SDS011;3370;47.712;9.082;2023-04-29T13:38:34;1.20;;;1.10;;
6667;SDS011;3370;47.712;9.082;2023-04-29T13:40:59;2.20;;;1.57;;
6667;SDS011;3370;47.712;9.082;2023-04-29T13:43:25;1.50;;;1.40;;
6667;SDS011;3370;47.712;9.082;2023-04-29T13:45:51;1.70;;;1.33;;
6667;SDS011;3370;47.712;9.082;2023-04-29T13:48:17;3.08;;;1.27;;
6667;SDS011;3370;47.712;9.082;2023-04-29T13:50:43;4.70;;;1.70;;
6667;SDS011;3370;47.712;9.082;2023-04-29T13:53:09;1.77;;;1.60;;
6667;SDS011;3370;47.712;9.082;2023-04-29T13:55:35;1.40;;;1.30;;
6667;SDS011;3370;47.712;9.082;2023-04-29T13:58:01;2.60;;;1.17;;
6667;SDS011;3370;47.712;9.082;2023-04-29T14:00:27;1.63;;;1.53;;
6667;SDS011;3370;47.712;9.082;2023-04-29T14:02:53;2.20;;;2.00;;
6667;SDS011;3370;47.712;9.082;2023-04-29T14:05:19;1.60;;;1.48;;
6667;SDS011;3370;47.712;9.082;2023-04-29T14:07:45;4.20;;;1.73;;
6667;SDS011;3370;47.712;9.082;2023-04-29T14:10:11;4.27;;;2.50;;
6667;SDS011;3370;47.712;9.082;2023-04-29T14:12:37;1.83;;;1.73;;
6667;SDS011;3370;47.712;9.082;2023-04-29T14:15:02;2.07;;;1.97;;
6667;SDS011;3370;47.712;9.082;2023-04-29T14:17:29;1.58;;;1.48;;
6667;SDS011;3370;47.712;9.082;2023-04-29T14:19:55;1.50;;;1.40;;
6667;SDS011;3370;47.712;9.082;2023-04-29T14:22:21;3.17;;;1.93;;
6667;SDS011;3370;47.712;9.082;2023-04-29T14:24:47;1.57;;;1.47;;
6667;SDS011;3370;47.712;9.082;2023-04-29T14:27:13;2.00;;;1.40;;
6667;SDS011;3370;47.712;9.082;2023-04-29T14:29:39;1.33;;;1.23;;
6667;SDS011;3370;47.712;9.082;2023-04-29T14:32:05;1.47;;;1.37;;
6667;SDS011;3370;47.712;9.082;2023-04-29T14:34:31;1.60;;;1.50;;
6667;SDS011;3370;47.712;9.082;2023-04-29T14:36:57;3.37;;;1.40;;
6667;SDS011;3370;47.712;9.082;2023-04-29T14:39:23;1.60;;;1.50;;
6667;SDS011;3370;47.712;9.082;2023-04-29T14:41:50;1.73;;;1.63;;
6667;SDS011;3370;47.712;9.082;2023-04-29T14:44:16;1.53;;;1.03;;
6667;SDS011;3370;47.712;9.082;2023-04-29T14:46:42;1.67;;;1.33;;
6667;SDS011;3370;47.712;9.082;2023-04-29T14:49:08;1.27;;;1.10;;
6667;SDS011;3370;47.712;9.082;2023-04-29T14:51:34;1.83;;;1.53;;
6667;SDS011;3370;47.712;9.082;2023-04-29T14:54:00;2.63;;;1.40;;
6667;SDS011;3370;47.712;9.082;2023-04-29T14:56:25;1.97;;;1.60;;
6667;SDS011;3370;47.712;9.082;2023-04-29T14:58:51;1.80;;;1.38;;
6667;SDS011;3370;47.712;9.082;2023-04-29T15:01:17;2.10;;;1.90;;
6667;SDS011;3370;47.712;9.082;2023-04-29T15:03:43;3.10;;;2.17;;
6667;SDS011;3370;47.712;9.082;2023-04-29T15:06:09;8.77;;;4.77;;
6667;SDS011;3370;47.712;9.082;2023-04-29T15:08:35;3.57;;;2.70;;
6667;SDS011;3370;47.712;9.082;2023-04-29T15:11:02;4.93;;;4.00;;
6667;SDS011;3370;47.712;9.082;2023-04-29T15:13:28;2.10;;;1.90;;
6667;SDS011;3370;47.712;9.082;2023-04-29T15:15:53;2.55;;;2.20;;
6667;SDS011;3370;47.712;9.082;2023-04-29T15:18:19;1.43;;;1.43;;
6667;SDS011;3370;47.712;9.082;2023-04-29T15:20:47;1.10;;;1.10;;
6667;SDS011;3370;47.712;9.082;2023-04-29T15:23:14;1.80;;;1.60;;
6667;SDS011;3370;47.712;9.082;2023-04-29T15:25:40;3.13;;;1.50;;
6667;SDS011;3370;47.712;9.082;2023-04-29T15:28:05;1.40;;;1.30;;
6667;SDS011;3370;47.712;9.082;2023-04-29T15:30:31;1.60;;;1.50;;
6667;SDS011;3370;47.712;9.082;2023-04-29T15:32:57;1.90;;;1.77;;
6667;SDS011;3370;47.712;9.082;2023-04-29T15:35:23;1.50;;;1.40;;
6667;SDS011;3370;47.712;9.082;2023-04-29T15:37:49;1.63;;;1.20;;
6667;SDS011;3370;47.712;9.082;2023-04-29T15:40:15;2.10;;;1.13;;
6667;SDS011;3370;47.712;9.082;2023-04-29T15:42:41;1.42;;;1.33;;
6667;SDS011;3370;47.712;9.082;2023-04-29T15:45:07;5.70;;;1.20;;
6667;SDS011;3370;47.712;9.082;2023-04-29T15:47:35;1.20;;;1.20;;
6667;SDS011;3370;47.712;9.082;2023-04-29T15:50:01;2.80;;;1.23;;